createdAt,value
2022-12-15T00:01:06.842Z,-1.20
2022-12-15T00:04:27.717Z,-1.15
2022-12-15T00:07:55.097Z,-1.16
2022-12-15T00:11:16.006Z,-1.00
2022-12-15T00:14:37.116Z,-1.10
2022-12-15T00:18:04.190Z,-0.99
2022-12-15T00:21:33.696Z,-1.00
2022-12-15T00:24:57.142Z,-1.03
2022-12-15T00:28:26.869Z,-1.10
2022-12-15T00:31:49.108Z,-1.00
2022-12-15T00:35:25.148Z,-1.05
2022-12-15T00:38:44.424Z,-1.04
2022-12-15T00:41:46.398Z,-1.05
2022-12-15T00:44:55.431Z,-1.17
2022-12-15T00:48:06.865Z,-1.06
2022-12-15T00:51:18.564Z,-0.99
2022-12-15T00:54:39.057Z,-1.15
2022-12-15T00:58:03.736Z,-0.92
2022-12-15T01:01:40.127Z,-0.94
2022-12-15T01:05:13.224Z,-1.00
2022-12-15T01:08:33.649Z,-1.03
2022-12-15T01:11:54.486Z,-0.94
2022-12-15T01:15:14.986Z,-0.92
2022-12-15T01:18:36.057Z,-1.01
2022-12-15T01:21:38.903Z,-1.23
2022-12-15T01:24:42.697Z,-1.13
2022-12-15T01:27:46.179Z,-1.17
2022-12-15T01:30:54.770Z,-1.26
2022-12-15T01:34:12.506Z,-1.14
2022-12-15T01:37:14.766Z,-1.23
2022-12-15T01:40:40.607Z,-1.10
2022-12-15T01:43:49.916Z,-1.17
2022-12-15T01:47:01.243Z,-1.20
2022-12-15T01:50:03.755Z,-1.10
2022-12-15T01:53:05.617Z,-1.10
2022-12-15T01:56:08.457Z,-1.07
2022-12-15T01:59:22.262Z,-1.19
2022-12-15T02:02:33.391Z,-1.09
2022-12-15T02:05:45.268Z,-1.12
2022-12-15T02:08:50.344Z,-1.03
2022-12-15T02:12:04.149Z,-0.98
2022-12-15T02:15:35.737Z,-1.08
2022-12-15T02:19:10.171Z,-1.05
2022-12-15T02:22:28.390Z,-1.01
2022-12-15T02:25:43.887Z,-1.17
2022-12-15T02:29:26.547Z,-1.05
2022-12-15T02:32:56.439Z,-1.09
2022-12-15T02:36:32.172Z,-0.98
2022-12-15T02:39:43.768Z,-1.01
2022-12-15T02:42:59.934Z,-1.03
2022-12-15T02:46:26.847Z,-1.02
2022-12-15T02:50:10.040Z,-1.04
2022-12-15T02:57:24.990Z,-1.04
2022-12-15T03:00:32.116Z,-1.01
2022-12-15T03:03:38.780Z,-1.03
2022-12-15T03:06:48.345Z,-0.93
2022-12-15T03:10:01.710Z,-1.00
2022-12-15T03:13:17.107Z,-1.09
2022-12-15T03:16:32.366Z,-1.17
2022-12-15T03:19:46.691Z,-1.20
2022-12-15T03:22:58.378Z,-1.23
2022-12-15T03:26:06.364Z,-1.27
2022-12-15T03:29:09.201Z,-1.23
2022-12-15T03:32:12.264Z,-1.16
2022-12-15T03:35:14.939Z,-1.09
2022-12-15T03:38:25.025Z,-1.05
2022-12-15T03:41:27.614Z,-1.06
2022-12-15T03:44:30.271Z,-1.02
2022-12-15T03:47:35.777Z,-0.99
2022-12-15T03:50:38.522Z,-0.98
2022-12-15T03:53:43.932Z,-1.05
2022-12-15T03:56:47.516Z,-1.00
2022-12-15T03:59:50.197Z,-0.96
2022-12-15T04:02:55.773Z,-0.95
2022-12-15T04:05:58.496Z,-0.90
2022-12-15T04:09:01.135Z,-0.97
2022-12-15T04:12:06.217Z,-1.00
2022-12-15T04:15:11.888Z,-1.00
2022-12-15T04:18:20.367Z,-0.96
2022-12-15T04:21:22.905Z,-1.06
2022-12-15T04:24:44.285Z,-1.05
2022-12-15T04:28:05.244Z,-1.03
2022-12-15T04:31:48.125Z,-0.97
2022-12-15T04:35:08.965Z,-1.05
2022-12-15T04:38:29.769Z,-0.98
2022-12-15T04:41:51.594Z,-1.07
2022-12-15T04:45:18.735Z,-1.03
2022-12-15T04:48:44.789Z,-0.95
2022-12-15T04:52:05.609Z,-0.96
2022-12-15T04:55:31.156Z,-0.92
2022-12-15T04:58:51.929Z,-0.84
2022-12-15T05:02:18.926Z,-0.87
2022-12-15T05:05:45.651Z,-0.89
2022-12-15T05:09:06.462Z,-0.76
2022-12-15T05:12:27.416Z,-0.83
2022-12-15T05:15:52.091Z,-0.77
2022-12-15T05:19:13.095Z,-0.67
2022-12-15T05:22:36.842Z,-0.80
2022-12-15T05:26:02.366Z,-0.88
2022-12-15T05:29:23.987Z,-0.98
2022-12-15T05:32:26.457Z,-0.87
2022-12-15T05:35:29.108Z,-0.84
2022-12-15T05:38:37.529Z,-0.76
2022-12-15T05:41:43.040Z,-0.72
2022-12-15T05:44:45.745Z,-0.75
2022-12-15T05:47:55.032Z,-0.83
2022-12-15T05:50:57.747Z,-0.93
2022-12-15T05:54:00.261Z,-0.89
2022-12-15T05:57:02.834Z,-0.87
2022-12-15T06:00:06.041Z,-0.94
2022-12-15T06:03:14.044Z,-1.07
2022-12-15T06:06:16.564Z,-1.11
2022-12-15T06:09:19.023Z,-1.13
2022-12-15T06:12:21.291Z,-1.20
2022-12-15T06:15:23.872Z,-1.16
2022-12-15T06:18:28.984Z,-1.01
2022-12-15T06:21:35.638Z,-0.98
2022-12-15T06:24:37.970Z,-1.21
2022-12-15T06:27:40.412Z,-1.15
2022-12-15T06:30:43.038Z,-1.19
2022-12-15T06:33:47.949Z,-1.22
2022-12-15T06:36:50.571Z,-1.29
2022-12-15T06:39:53.154Z,-1.28
2022-12-15T06:42:55.561Z,-1.24
2022-12-15T06:45:58.369Z,-1.17
2022-12-15T06:49:02.246Z,-1.29
2022-12-15T06:52:04.712Z,-1.32
2022-12-15T06:55:06.844Z,-1.25
2022-12-15T06:58:08.770Z,-1.21
2022-12-15T07:01:11.444Z,-1.05
2022-12-15T07:04:13.540Z,-1.04
2022-12-15T07:07:15.580Z,-1.15
2022-12-15T07:10:18.304Z,-1.11
2022-12-15T07:13:23.283Z,-0.96
2022-12-15T07:16:25.574Z,-0.94
2022-12-15T07:19:27.442Z,-0.96
2022-12-15T07:22:29.436Z,-1.00
2022-12-15T07:25:31.547Z,-0.97
2022-12-15T07:28:34.807Z,-0.89
2022-12-15T07:31:40.732Z,-0.91
2022-12-15T07:34:43.353Z,-0.65
2022-12-15T07:37:46.846Z,-0.62
2022-12-15T07:40:50.953Z,-0.43
2022-12-15T07:43:52.986Z,-0.32
2022-12-15T07:46:55.829Z,-0.32
2022-12-15T07:49:58.070Z,-0.33
2022-12-15T07:52:59.921Z,-0.33
2022-12-15T07:56:09.115Z,-0.14
2022-12-15T07:59:12.941Z,0.30
2022-12-15T08:02:15.078Z,0.39
2022-12-15T08:05:17.061Z,0.03
2022-12-15T08:08:18.940Z,0.14
2022-12-15T08:11:22.629Z,0.40
2022-12-15T08:14:24.999Z,0.32
2022-12-15T08:17:26.959Z,0.23
2022-12-15T08:20:30.539Z,0.26
2022-12-15T08:23:33.958Z,0.61
2022-12-15T08:26:38.018Z,0.55
2022-12-15T08:29:55.075Z,0.79
2022-12-15T08:32:56.840Z,0.98
2022-12-15T08:36:03.564Z,1.25
2022-12-15T08:39:06.559Z,1.32
2022-12-15T08:42:08.789Z,1.32
2022-12-15T08:45:12.776Z,1.48
2022-12-15T08:48:14.733Z,1.58
2022-12-15T08:51:17.128Z,1.67
2022-12-15T08:54:19.982Z,1.72
2022-12-15T08:57:21.944Z,1.47
2022-12-15T09:00:24.201Z,1.46
2022-12-15T09:03:27.672Z,1.45
2022-12-15T09:06:31.981Z,1.83
2022-12-15T09:09:33.736Z,2.03
2022-12-15T09:12:35.494Z,2.19
2022-12-15T09:16:07.551Z,2.30
2022-12-15T09:18:59.992Z,2.42
2022-12-15T09:22:01.808Z,2.45
2022-12-15T09:25:06.259Z,2.63
2022-12-15T09:28:08.055Z,2.74
2022-12-15T09:31:22.355Z,2.69
2022-12-15T09:34:24.420Z,2.64
2022-12-15T09:37:26.220Z,2.70
2022-12-15T09:40:28.069Z,2.70
2022-12-15T09:43:34.711Z,2.77
2022-12-15T09:46:50.154Z,2.72
2022-12-15T09:49:59.641Z,2.61
2022-12-15T09:53:02.536Z,2.60
2022-12-15T09:56:27.796Z,2.76
2022-12-15T09:59:34.966Z,3.27
2022-12-15T10:02:36.674Z,3.64
2022-12-15T10:06:15.052Z,3.88
2022-12-15T10:09:23.347Z,3.78
2022-12-15T10:12:30.118Z,3.71
2022-12-15T10:15:42.101Z,3.39
2022-12-15T10:19:02.691Z,3.36
2022-12-15T10:22:04.575Z,3.50
2022-12-15T10:25:31.154Z,3.52
2022-12-15T10:28:54.458Z,3.44
2022-12-15T10:32:01.554Z,3.56
2022-12-15T10:35:14.661Z,3.71
2022-12-15T10:38:35.009Z,3.82
2022-12-15T10:41:37.008Z,3.62
2022-12-15T10:44:41.596Z,4.26
2022-12-15T10:47:59.687Z,4.14
2022-12-15T10:51:15.334Z,4.18
2022-12-15T10:54:19.197Z,3.68
2022-12-15T10:57:30.334Z,3.54
2022-12-15T11:00:33.572Z,3.61
2022-12-15T11:03:39.981Z,3.60
2022-12-15T11:06:42.833Z,3.51
2022-12-15T11:09:45.303Z,3.63
2022-12-15T11:13:08.637Z,3.68
2022-12-15T11:16:15.849Z,3.25
2022-12-15T11:19:38.112Z,3.28
2022-12-15T11:22:44.502Z,3.39
2022-12-15T11:26:21.003Z,3.22
2022-12-15T11:30:31.118Z,2.98
2022-12-15T11:33:33.265Z,2.98
2022-12-15T11:36:58.071Z,3.23
2022-12-15T11:40:37.463Z,3.26
2022-12-15T11:43:55.315Z,3.51
2022-12-15T11:46:57.189Z,3.66
2022-12-15T11:50:25.413Z,3.61
2022-12-15T11:53:56.144Z,3.61
2022-12-15T11:57:35.693Z,3.70
2022-12-15T12:00:43.919Z,3.96
2022-12-15T12:04:03.071Z,3.80
2022-12-15T12:07:26.608Z,4.03
2022-12-15T12:10:50.238Z,4.10
2022-12-15T12:14:14.567Z,4.03
2022-12-15T12:17:22.101Z,4.06
2022-12-15T12:20:52.981Z,4.20
2022-12-15T12:23:57.209Z,4.25
2022-12-15T12:27:06.351Z,4.29
2022-12-15T12:30:17.113Z,4.34
2022-12-15T12:33:31.093Z,4.55
2022-12-15T12:36:32.841Z,4.52
2022-12-15T12:39:35.060Z,4.73
2022-12-15T12:42:52.795Z,4.66
2022-12-15T12:45:55.707Z,4.39
2022-12-15T12:48:57.677Z,4.03
2022-12-15T12:52:02.039Z,3.80
2022-12-15T12:55:33.048Z,3.69
2022-12-15T12:58:35.267Z,3.82
2022-12-15T13:01:38.727Z,3.57
2022-12-15T13:04:43.221Z,3.63
2022-12-15T13:07:57.557Z,3.54
2022-12-15T13:11:39.069Z,3.12
2022-12-15T13:14:41.061Z,3.13
2022-12-15T13:17:50.633Z,2.92
2022-12-15T13:20:56.819Z,3.00
2022-12-15T13:23:59.620Z,3.04
2022-12-15T13:30:10.835Z,2.55
2022-12-15T13:33:17.395Z,2.24
2022-12-15T13:36:40.608Z,2.31
2022-12-15T13:39:55.918Z,2.35
2022-12-15T13:43:19.192Z,2.07
2022-12-15T13:46:26.167Z,2.08
2022-12-15T13:49:37.681Z,1.94
2022-12-15T13:53:18.548Z,1.85
2022-12-15T13:56:55.327Z,2.03
2022-12-15T13:59:58.811Z,2.01
2022-12-15T14:03:07.099Z,2.16
2022-12-15T14:06:13.558Z,2.03
2022-12-15T14:09:19.720Z,2.06
2022-12-15T14:12:21.859Z,2.04
2022-12-15T14:15:32.390Z,2.02
2022-12-15T14:18:36.617Z,2.03
2022-12-15T14:21:38.669Z,2.01
2022-12-15T14:24:44.720Z,1.79
2022-12-15T14:27:50.642Z,1.71
2022-12-15T14:30:53.528Z,1.44
2022-12-15T14:34:14.519Z,1.29
2022-12-15T14:37:19.630Z,0.95
2022-12-15T14:40:28.227Z,0.97
2022-12-15T14:43:37.588Z,0.83
2022-12-15T14:46:39.908Z,0.63
2022-12-15T14:49:45.560Z,0.63
2022-12-15T14:52:47.663Z,0.72
2022-12-15T14:55:50.212Z,0.77
2022-12-15T14:59:05.047Z,0.95
2022-12-15T15:02:23.449Z,0.96
2022-12-15T15:05:28.133Z,0.98
2022-12-15T15:08:37.010Z,0.64
2022-12-15T15:11:42.084Z,0.63
2022-12-15T15:14:49.554Z,0.59
2022-12-15T15:17:55.238Z,0.70
2022-12-15T15:21:01.661Z,0.62
2022-12-15T15:24:09.904Z,0.55
2022-12-15T15:27:38.677Z,0.59
2022-12-15T15:30:56.234Z,0.60
2022-12-15T15:33:58.988Z,0.79
2022-12-15T15:37:03.323Z,0.73
2022-12-15T15:40:10.888Z,0.62
2022-12-15T15:43:13.570Z,0.59
2022-12-15T15:46:20.453Z,0.59
2022-12-15T15:49:24.746Z,0.60
2022-12-15T15:52:28.906Z,0.55
2022-12-15T15:55:37.796Z,0.40
2022-12-15T15:58:43.021Z,0.41
2022-12-15T16:01:46.783Z,0.31
2022-12-15T16:04:50.101Z,0.37
2022-12-15T16:07:52.143Z,0.31
2022-12-15T16:10:54.726Z,0.21
2022-12-15T16:13:57.245Z,0.22
2022-12-15T16:17:00.365Z,0.27
2022-12-15T16:20:02.816Z,0.56
2022-12-15T16:23:16.978Z,0.75
2022-12-15T16:26:30.499Z,0.88
2022-12-15T16:29:32.738Z,0.96
2022-12-15T16:32:34.866Z,0.95
2022-12-15T16:35:37.443Z,0.87
2022-12-15T16:38:43.622Z,0.99
2022-12-15T16:41:45.741Z,1.05
2022-12-15T16:44:48.255Z,1.08
2022-12-15T16:47:50.978Z,1.01
2022-12-15T16:50:56.248Z,1.14
2022-12-15T16:53:58.702Z,1.23
2022-12-15T16:57:03.096Z,1.08
2022-12-15T17:00:22.630Z,0.99
2022-12-15T17:03:28.415Z,0.98
2022-12-15T17:06:31.093Z,0.88
2022-12-15T17:09:37.469Z,0.84
2022-12-15T17:12:40.633Z,0.63
2022-12-15T17:15:43.077Z,0.62
2022-12-15T17:18:45.450Z,0.45
2022-12-15T17:21:52.852Z,0.50
2022-12-15T17:24:55.581Z,0.65
2022-12-15T17:27:58.297Z,0.80
2022-12-15T17:31:00.868Z,0.90
2022-12-15T17:34:25.641Z,0.94
2022-12-15T17:37:34.881Z,0.83
2022-12-15T17:40:37.884Z,0.73
2022-12-15T17:43:41.625Z,0.90
2022-12-15T17:46:44.069Z,0.94
2022-12-15T17:49:47.788Z,0.89
2022-12-15T17:52:50.435Z,0.93
2022-12-15T17:55:54.256Z,0.98
2022-12-15T17:58:56.505Z,0.96
2022-12-15T18:01:58.652Z,0.95
2022-12-15T18:05:00.684Z,0.97
2022-12-15T18:08:07.630Z,0.99
2022-12-15T18:11:16.062Z,1.19
2022-12-15T18:14:20.064Z,1.19
2022-12-15T18:17:22.953Z,1.27
2022-12-15T18:20:26.078Z,1.19
2022-12-15T18:23:33.152Z,1.15
2022-12-15T18:26:38.345Z,1.15
2022-12-15T18:29:40.293Z,1.09
2022-12-15T18:32:42.704Z,1.11
2022-12-15T18:35:47.326Z,1.05
2022-12-15T18:38:49.803Z,1.12
2022-12-15T18:41:55.162Z,1.04
2022-12-15T18:44:58.878Z,1.03
2022-12-15T18:48:00.987Z,1.03
2022-12-15T18:51:13.595Z,1.00
2022-12-15T18:54:24.292Z,1.02
2022-12-15T18:57:40.023Z,0.82
2022-12-15T19:00:42.635Z,0.73
2022-12-15T19:03:44.699Z,0.70
2022-12-15T19:06:47.403Z,0.62
2022-12-15T19:09:50.518Z,0.59
2022-12-15T19:12:58.239Z,0.59
2022-12-15T19:16:02.630Z,0.56
2022-12-15T19:19:23.356Z,0.37
2022-12-15T19:22:29.871Z,0.43
2022-12-15T19:25:32.869Z,0.50
2022-12-15T19:28:35.159Z,0.53
2022-12-15T19:31:37.667Z,0.68
2022-12-15T19:34:40.382Z,0.79
2022-12-15T19:37:44.869Z,0.68
2022-12-15T19:40:48.240Z,0.78
2022-12-15T19:43:50.233Z,0.77
2022-12-15T19:46:52.957Z,0.89
2022-12-15T19:49:55.161Z,0.84
2022-12-15T19:53:02.356Z,0.89
2022-12-15T19:56:04.833Z,1.02
2022-12-15T19:59:13.606Z,1.01
2022-12-15T20:02:17.958Z,0.76
2022-12-15T20:05:25.376Z,0.70
2022-12-15T20:08:28.501Z,0.78
2022-12-15T20:11:32.295Z,0.60
2022-12-15T20:14:34.575Z,0.55
2022-12-15T20:17:36.612Z,0.74
2022-12-15T20:20:39.163Z,0.92
2022-12-15T20:23:55.321Z,0.94
2022-12-15T20:26:57.794Z,0.83
2022-12-15T20:30:00.078Z,0.68
2022-12-15T20:33:04.067Z,0.81
2022-12-15T20:36:16.205Z,0.93
2022-12-15T20:39:26.622Z,0.93
2022-12-15T20:42:28.693Z,1.00
2022-12-15T20:45:30.833Z,1.04
2022-12-15T20:48:34.296Z,1.16
2022-12-15T20:51:36.194Z,1.23
2022-12-15T20:54:38.171Z,1.10
2022-12-15T20:57:40.321Z,0.99
2022-12-15T21:00:43.043Z,0.92
2022-12-15T21:03:46.037Z,1.05
2022-12-15T21:06:52.946Z,1.02
2022-12-15T21:09:56.844Z,0.90
2022-12-15T21:12:58.897Z,0.86
2022-12-15T21:16:01.315Z,0.88
2022-12-15T21:19:19.842Z,0.88
2022-12-15T21:22:25.092Z,0.69
2022-12-15T21:25:27.754Z,0.77
2022-12-15T21:28:30.231Z,0.63
2022-12-15T21:31:32.238Z,0.72
2022-12-15T21:34:34.841Z,0.82
2022-12-15T21:37:36.893Z,0.87
2022-12-15T21:40:38.906Z,0.89
2022-12-15T21:43:40.773Z,0.88
2022-12-15T21:46:42.842Z,0.85
2022-12-15T21:49:44.737Z,0.87
2022-12-15T21:52:47.719Z,0.92
2022-12-15T21:55:50.095Z,0.81
2022-12-15T21:58:52.934Z,0.72
2022-12-15T22:01:57.556Z,0.74
2022-12-15T22:04:59.797Z,0.57
2022-12-15T22:08:13.719Z,0.44
2022-12-15T22:11:23.854Z,0.46
2022-12-15T22:14:28.121Z,0.22
2022-12-15T22:17:30.253Z,0.30
2022-12-15T22:20:32.371Z,0.30
2022-12-15T22:23:34.649Z,0.28
2022-12-15T22:26:37.829Z,0.25
2022-12-15T22:29:39.857Z,0.43
2022-12-15T22:32:42.395Z,0.54
2022-12-15T22:35:44.292Z,0.48
2022-12-15T22:38:47.089Z,0.56
2022-12-15T22:41:51.012Z,0.55
2022-12-15T22:44:53.873Z,0.42
2022-12-15T22:47:57.050Z,0.51
2022-12-15T22:50:59.386Z,0.46
2022-12-15T22:54:01.641Z,0.34
2022-12-15T22:57:05.596Z,0.26
2022-12-15T23:00:09.890Z,0.44
2022-12-15T23:03:12.308Z,0.42
2022-12-15T23:06:14.155Z,0.35
2022-12-15T23:09:20.938Z,0.39
2022-12-15T23:12:23.094Z,0.44
2022-12-15T23:15:45.235Z,0.47
2022-12-15T23:18:49.113Z,0.62
2022-12-15T23:21:51.754Z,0.65
2022-12-15T23:24:53.705Z,0.55
2022-12-15T23:27:55.856Z,0.62
2022-12-15T23:30:58.132Z,0.72
2022-12-15T23:34:00.108Z,0.68
2022-12-15T23:37:02.902Z,0.70
2022-12-15T23:40:05.446Z,0.72
2022-12-15T23:43:07.438Z,0.80
2022-12-15T23:46:09.469Z,0.94
2022-12-15T23:49:11.399Z,1.00
2022-12-15T23:52:13.205Z,1.08
2022-12-15T23:55:15.232Z,1.05
2022-12-15T23:58:16.943Z,0.99
